sensor_id;sensor_type;location;lat;lon;timestamp;P1;durP1;ratioP1;P2;durP2;ratioP2
71475;SDS011;59286;59.274;17.974;2022-10-18T00:02:06;2.65;;;0.93;;
71475;SDS011;59286;59.274;17.974;2022-10-18T00:04:31;2.95;;;1.10;;
71475;SDS011;59286;59.274;17.974;2022-10-18T00:06:57;1.67;;;0.95;;
71475;SDS011;59286;59.274;17.974;2022-10-18T00:09:22;8.55;;;1.20;;
71475;SDS011;59286;59.274;17.974;2022-10-18T00:11:48;3.88;;;1.20;;
71475;SDS011;59286;59.274;17.974;2022-10-18T00:14:13;4.20;;;1.00;;
71475;SDS011;59286;59.274;17.974;2022-10-18T00:16:39;3.83;;;1.02;;
71475;SDS011;59286;59.274;17.974;2022-10-18T00:19:04;4.40;;;1.00;;
71475;SDS011;59286;59.274;17.974;2022-10-18T00:21:29;9.35;;;1.27;;
71475;SDS011;59286;59.274;17.974;2022-10-18T00:23:55;5.40;;;1.52;;
71475;SDS011;59286;59.274;17.974;2022-10-18T00:26:22;5.63;;;1.65;;
71475;SDS011;59286;59.274;17.974;2022-10-18T00:28:50;4.88;;;1.90;;
71475;SDS011;59286;59.274;17.974;2022-10-18T00:31:20;5.45;;;2.20;;
71475;SDS011;59286;59.274;17.974;2022-10-18T00:33:55;10.18;;;3.47;;
71475;SDS011;59286;59.274;17.974;2022-10-18T00:36:22;7.65;;;2.90;;
71475;SDS011;59286;59.274;17.974;2022-10-18T00:38:48;7.63;;;3.38;;
71475;SDS011;59286;59.274;17.974;2022-10-18T00:41:19;4.70;;;2.35;;
71475;SDS011;59286;59.274;17.974;2022-10-18T00:46:27;5.28;;;2.60;;
71475;SDS011;59286;59.274;17.974;2022-10-18T00:48:55;5.70;;;2.75;;
71475;SDS011;59286;59.274;17.974;2022-10-18T00:51:22;6.30;;;3.25;;
71475;SDS011;59286;59.274;17.974;2022-10-18T00:53:51;4.40;;;3.00;;
71475;SDS011;59286;59.274;17.974;2022-10-18T00:56:17;5.82;;;3.03;;
71475;SDS011;59286;59.274;17.974;2022-10-18T00:58:42;5.75;;;3.00;;
71475;SDS011;59286;59.274;17.974;2022-10-18T01:01:09;5.50;;;3.05;;
71475;SDS011;59286;59.274;17.974;2022-10-18T01:03:35;6.30;;;2.65;;
71475;SDS011;59286;59.274;17.974;2022-10-18T01:06:01;5.20;;;1.98;;
71475;SDS011;59286;59.274;17.974;2022-10-18T01:11:25;4.35;;;1.90;;
71475;SDS011;59286;59.274;17.974;2022-10-18T01:17:19;5.65;;;1.95;;
71475;SDS011;59286;59.274;17.974;2022-10-18T01:22:47;4.13;;;1.45;;
71475;SDS011;59286;59.274;17.974;2022-10-18T01:25:22;5.80;;;1.30;;
71475;SDS011;59286;59.274;17.974;2022-10-18T01:28:34;5.07;;;1.77;;
71475;SDS011;59286;59.274;17.974;2022-10-18T01:31:20;2.35;;;0.75;;
71475;SDS011;59286;59.274;17.974;2022-10-18T01:33:48;4.10;;;1.13;;
71475;SDS011;59286;59.274;17.974;2022-10-18T01:36:22;5.43;;;1.30;;
71475;SDS011;59286;59.274;17.974;2022-10-18T01:38:53;6.55;;;1.73;;
71475;SDS011;59286;59.274;17.974;2022-10-18T01:41:21;4.35;;;1.13;;
71475;SDS011;59286;59.274;17.974;2022-10-18T01:43:49;3.33;;;1.00;;
71475;SDS011;59286;59.274;17.974;2022-10-18T01:46:20;5.85;;;1.40;;
71475;SDS011;59286;59.274;17.974;2022-10-18T01:48:47;3.45;;;1.17;;
71475;SDS011;59286;59.274;17.974;2022-10-18T01:51:13;3.05;;;1.00;;
71475;SDS011;59286;59.274;17.974;2022-10-18T01:53:39;2.72;;;0.90;;
71475;SDS011;59286;59.274;17.974;2022-10-18T01:59:08;5.85;;;1.10;;
71475;SDS011;59286;59.274;17.974;2022-10-18T02:04:27;4.90;;;1.60;;
71475;SDS011;59286;59.274;17.974;2022-10-18T02:06:56;3.78;;;1.77;;
71475;SDS011;59286;59.274;17.974;2022-10-18T02:09:30;4.10;;;1.70;;
71475;SDS011;59286;59.274;17.974;2022-10-18T02:14:29;8.13;;;3.55;;
71475;SDS011;59286;59.274;17.974;2022-10-18T02:16:56;5.57;;;3.20;;
71475;SDS011;59286;59.274;17.974;2022-10-18T02:19:30;5.45;;;3.25;;
71475;SDS011;59286;59.274;17.974;2022-10-18T02:22:01;13.10;;;5.32;;
71475;SDS011;59286;59.274;17.974;2022-10-18T02:24:38;8.85;;;4.13;;
71475;SDS011;59286;59.274;17.974;2022-10-18T02:27:08;12.93;;;5.30;;
71475;SDS011;59286;59.274;17.974;2022-10-18T02:29:34;11.65;;;4.70;;
71475;SDS011;59286;59.274;17.974;2022-10-18T02:32:20;18.75;;;6.18;;
71475;SDS011;59286;59.274;17.974;2022-10-18T02:35:13;9.80;;;4.40;;
71475;SDS011;59286;59.274;17.974;2022-10-18T02:37:47;13.23;;;5.22;;
71475;SDS011;59286;59.274;17.974;2022-10-18T02:40:16;26.73;;;6.45;;
71475;SDS011;59286;59.274;17.974;2022-10-18T02:42:46;8.25;;;4.05;;
71475;SDS011;59286;59.274;17.974;2022-10-18T02:45:14;9.32;;;3.90;;
71475;SDS011;59286;59.274;17.974;2022-10-18T02:47:40;6.72;;;3.55;;
71475;SDS011;59286;59.274;17.974;2022-10-18T02:50:05;9.40;;;3.10;;
71475;SDS011;59286;59.274;17.974;2022-10-18T02:52:31;6.20;;;2.40;;
71475;SDS011;59286;59.274;17.974;2022-10-18T02:54:56;8.93;;;3.35;;
71475;SDS011;59286;59.274;17.974;2022-10-18T02:57:21;4.13;;;2.47;;
71475;SDS011;59286;59.274;17.974;2022-10-18T02:59:47;7.35;;;2.40;;
71475;SDS011;59286;59.274;17.974;2022-10-18T03:02:12;8.65;;;2.72;;
71475;SDS011;59286;59.274;17.974;2022-10-18T03:04:37;6.47;;;2.70;;
71475;SDS011;59286;59.274;17.974;2022-10-18T03:07:03;5.35;;;2.38;;
71475;SDS011;59286;59.274;17.974;2022-10-18T03:09:28;8.98;;;3.22;;
71475;SDS011;59286;59.274;17.974;2022-10-18T03:11:54;6.35;;;2.30;;
71475;SDS011;59286;59.274;17.974;2022-10-18T03:14:19;4.90;;;2.17;;
71475;SDS011;59286;59.274;17.974;2022-10-18T03:16:44;4.70;;;1.83;;
71475;SDS011;59286;59.274;17.974;2022-10-18T03:19:10;3.72;;;1.40;;
71475;SDS011;59286;59.274;17.974;2022-10-18T03:21:35;4.53;;;1.60;;
71475;SDS011;59286;59.274;17.974;2022-10-18T03:24:00;8.80;;;1.83;;
71475;SDS011;59286;59.274;17.974;2022-10-18T03:26:26;4.80;;;1.30;;
71475;SDS011;59286;59.274;17.974;2022-10-18T03:28:52;3.92;;;1.70;;
71475;SDS011;59286;59.274;17.974;2022-10-18T03:31:17;4.80;;;1.55;;
71475;SDS011;59286;59.274;17.974;2022-10-18T03:33:42;6.28;;;1.83;;
71475;SDS011;59286;59.274;17.974;2022-10-18T03:36:08;3.67;;;1.40;;
71475;SDS011;59286;59.274;17.974;2022-10-18T03:38:33;4.28;;;1.77;;
71475;SDS011;59286;59.274;17.974;2022-10-18T03:40:58;3.70;;;1.52;;
71475;SDS011;59286;59.274;17.974;2022-10-18T03:43:24;3.80;;;1.48;;
71475;SDS011;59286;59.274;17.974;2022-10-18T03:45:50;4.70;;;1.67;;
71475;SDS011;59286;59.274;17.974;2022-10-18T03:48:15;5.13;;;1.70;;
71475;SDS011;59286;59.274;17.974;2022-10-18T03:50:41;5.28;;;2.03;;
71475;SDS011;59286;59.274;17.974;2022-10-18T03:53:07;4.57;;;2.10;;
71475;SDS011;59286;59.274;17.974;2022-10-18T03:55:32;4.75;;;2.20;;
71475;SDS011;59286;59.274;17.974;2022-10-18T03:57:58;3.55;;;1.80;;
71475;SDS011;59286;59.274;17.974;2022-10-18T04:00:23;4.90;;;2.35;;
71475;SDS011;59286;59.274;17.974;2022-10-18T04:02:48;4.30;;;1.67;;
71475;SDS011;59286;59.274;17.974;2022-10-18T04:05:14;6.78;;;1.80;;
71475;SDS011;59286;59.274;17.974;2022-10-18T04:07:39;6.80;;;1.38;;
71475;SDS011;59286;59.274;17.974;2022-10-18T04:10:05;2.72;;;1.00;;
71475;SDS011;59286;59.274;17.974;2022-10-18T04:12:31;7.75;;;1.95;;
71475;SDS011;59286;59.274;17.974;2022-10-18T04:14:56;2.53;;;1.10;;
71475;SDS011;59286;59.274;17.974;2022-10-18T04:17:21;6.10;;;1.70;;
71475;SDS011;59286;59.274;17.974;2022-10-18T04:19:47;4.45;;;2.15;;
71475;SDS011;59286;59.274;17.974;2022-10-18T04:22:13;2.90;;;1.20;;
71475;SDS011;59286;59.274;17.974;2022-10-18T04:24:38;5.60;;;1.48;;
71475;SDS011;59286;59.274;17.974;2022-10-18T04:27:04;1.95;;;0.98;;
71475;SDS011;59286;59.274;17.974;2022-10-18T04:29:30;6.05;;;1.20;;
71475;SDS011;59286;59.274;17.974;2022-10-18T04:31:56;3.20;;;1.20;;
71475;SDS011;59286;59.274;17.974;2022-10-18T04:34:21;5.43;;;1.10;;
71475;SDS011;59286;59.274;17.974;2022-10-18T04:36:47;3.42;;;1.15;;
71475;SDS011;59286;59.274;17.974;2022-10-18T04:39:12;2.78;;;1.08;;
71475;SDS011;59286;59.274;17.974;2022-10-18T04:41:37;3.95;;;1.05;;
71475;SDS011;59286;59.274;17.974;2022-10-18T04:44:03;4.25;;;1.10;;
71475;SDS011;59286;59.274;17.974;2022-10-18T04:46:28;3.35;;;1.40;;
71475;SDS011;59286;59.274;17.974;2022-10-18T04:48:54;3.80;;;1.58;;
71475;SDS011;59286;59.274;17.974;2022-10-18T04:51:19;6.28;;;2.15;;
71475;SDS011;59286;59.274;17.974;2022-10-18T04:53:44;6.22;;;3.03;;
71475;SDS011;59286;59.274;17.974;2022-10-18T04:56:10;4.88;;;2.00;;
71475;SDS011;59286;59.274;17.974;2022-10-18T04:58:35;3.05;;;2.13;;
71475;SDS011;59286;59.274;17.974;2022-10-18T05:01:03;6.18;;;2.65;;
71475;SDS011;59286;59.274;17.974;2022-10-18T05:03:30;7.50;;;2.80;;
71475;SDS011;59286;59.274;17.974;2022-10-18T05:05:56;7.63;;;2.38;;
71475;SDS011;59286;59.274;17.974;2022-10-18T05:08:21;5.50;;;2.60;;
71475;SDS011;59286;59.274;17.974;2022-10-18T05:10:46;4.95;;;2.40;;
71475;SDS011;59286;59.274;17.974;2022-10-18T05:13:12;4.68;;;2.75;;
71475;SDS011;59286;59.274;17.974;2022-10-18T05:15:37;6.32;;;2.72;;
71475;SDS011;59286;59.274;17.974;2022-10-18T05:18:03;5.70;;;3.05;;
71475;SDS011;59286;59.274;17.974;2022-10-18T05:20:28;10.18;;;5.32;;
71475;SDS011;59286;59.274;17.974;2022-10-18T05:22:53;8.25;;;4.53;;
71475;SDS011;59286;59.274;17.974;2022-10-18T05:25:19;6.72;;;3.97;;
71475;SDS011;59286;59.274;17.974;2022-10-18T05:27:44;5.03;;;3.38;;
71475;SDS011;59286;59.274;17.974;2022-10-18T05:30:09;5.82;;;2.83;;
71475;SDS011;59286;59.274;17.974;2022-10-18T05:32:35;6.18;;;2.50;;
71475;SDS011;59286;59.274;17.974;2022-10-18T05:35:00;3.58;;;1.55;;
71475;SDS011;59286;59.274;17.974;2022-10-18T05:37:25;4.90;;;1.95;;
71475;SDS011;59286;59.274;17.974;2022-10-18T05:39:51;4.15;;;2.17;;
71475;SDS011;59286;59.274;17.974;2022-10-18T05:42:16;3.53;;;1.92;;
71475;SDS011;59286;59.274;17.974;2022-10-18T05:44:42;3.10;;;1.67;;
71475;SDS011;59286;59.274;17.974;2022-10-18T05:47:07;4.53;;;2.67;;
71475;SDS011;59286;59.274;17.974;2022-10-18T05:49:33;4.32;;;2.83;;
71475;SDS011;59286;59.274;17.974;2022-10-18T05:51:58;7.70;;;3.90;;
71475;SDS011;59286;59.274;17.974;2022-10-18T05:54:23;3.15;;;2.20;;
71475;SDS011;59286;59.274;17.974;2022-10-18T05:56:49;5.25;;;2.20;;
71475;SDS011;59286;59.274;17.974;2022-10-18T05:59:14;8.15;;;2.00;;
71475;SDS011;59286;59.274;17.974;2022-10-18T06:01:40;4.18;;;2.20;;
71475;SDS011;59286;59.274;17.974;2022-10-18T06:04:07;3.55;;;1.83;;
71475;SDS011;59286;59.274;17.974;2022-10-18T06:06:34;4.60;;;2.20;;
71475;SDS011;59286;59.274;17.974;2022-10-18T06:09:00;3.58;;;2.10;;
71475;SDS011;59286;59.274;17.974;2022-10-18T06:11:27;2.95;;;1.50;;
71475;SDS011;59286;59.274;17.974;2022-10-18T06:13:53;3.92;;;1.30;;
71475;SDS011;59286;59.274;17.974;2022-10-18T06:16:19;3.92;;;1.52;;
71475;SDS011;59286;59.274;17.974;2022-10-18T06:18:49;2.65;;;1.20;;
71475;SDS011;59286;59.274;17.974;2022-10-18T06:21:16;2.55;;;1.25;;
71475;SDS011;59286;59.274;17.974;2022-10-18T06:23:43;2.92;;;1.20;;
71475;SDS011;59286;59.274;17.974;2022-10-18T06:26:11;2.05;;;1.10;;
71475;SDS011;59286;59.274;17.974;2022-10-18T06:28:37;3.58;;;1.13;;
71475;SDS011;59286;59.274;17.974;2022-10-18T06:31:03;4.00;;;1.30;;
71475;SDS011;59286;59.274;17.974;2022-10-18T06:33:30;3.42;;;1.80;;
71475;SDS011;59286;59.274;17.974;2022-10-18T06:35:57;2.53;;;1.40;;
71475;SDS011;59286;59.274;17.974;2022-10-18T06:38:23;4.80;;;1.50;;
71475;SDS011;59286;59.274;17.974;2022-10-18T06:40:49;5.20;;;1.90;;
71475;SDS011;59286;59.274;17.974;2022-10-18T06:43:15;3.22;;;1.17;;
71475;SDS011;59286;59.274;17.974;2022-10-18T06:45:40;3.72;;;1.33;;
71475;SDS011;59286;59.274;17.974;2022-10-18T06:48:05;3.00;;;1.00;;
71475;SDS011;59286;59.274;17.974;2022-10-18T06:50:31;3.05;;;1.60;;
71475;SDS011;59286;59.274;17.974;2022-10-18T06:52:56;4.28;;;1.50;;
71475;SDS011;59286;59.274;17.974;2022-10-18T06:55:22;3.33;;;1.30;;
71475;SDS011;59286;59.274;17.974;2022-10-18T06:57:47;3.40;;;1.23;;
71475;SDS011;59286;59.274;17.974;2022-10-18T07:00:13;1.88;;;0.90;;
71475;SDS011;59286;59.274;17.974;2022-10-18T07:02:39;3.15;;;1.05;;
71475;SDS011;59286;59.274;17.974;2022-10-18T07:05:08;2.15;;;0.80;;
71475;SDS011;59286;59.274;17.974;2022-10-18T07:07:34;1.48;;;0.70;;
71475;SDS011;59286;59.274;17.974;2022-10-18T07:09:59;1.65;;;0.50;;
71475;SDS011;59286;59.274;17.974;2022-10-18T07:12:25;1.50;;;0.60;;
71475;SDS011;59286;59.274;17.974;2022-10-18T07:14:50;0.85;;;0.70;;
71475;SDS011;59286;59.274;17.974;2022-10-18T07:17:15;5.97;;;0.85;;
71475;SDS011;59286;59.274;17.974;2022-10-18T07:19:41;2.83;;;0.82;;
71475;SDS011;59286;59.274;17.974;2022-10-18T07:22:06;0.93;;;0.60;;
71475;SDS011;59286;59.274;17.974;2022-10-18T07:24:32;1.40;;;0.63;;
71475;SDS011;59286;59.274;17.974;2022-10-18T07:26:57;1.20;;;0.85;;
71475;SDS011;59286;59.274;17.974;2022-10-18T07:29:22;0.88;;;0.70;;
71475;SDS011;59286;59.274;17.974;2022-10-18T07:31:48;1.10;;;0.70;;
71475;SDS011;59286;59.274;17.974;2022-10-18T07:34:14;1.23;;;0.57;;
71475;SDS011;59286;59.274;17.974;2022-10-18T07:36:39;1.27;;;0.55;;
71475;SDS011;59286;59.274;17.974;2022-10-18T07:39:05;4.20;;;0.80;;
71475;SDS011;59286;59.274;17.974;2022-10-18T07:41:31;1.83;;;0.60;;
71475;SDS011;59286;59.274;17.974;2022-10-18T07:44:00;1.05;;;0.50;;
71475;SDS011;59286;59.274;17.974;2022-10-18T07:46:26;1.40;;;0.43;;
71475;SDS011;59286;59.274;17.974;2022-10-18T07:48:51;1.08;;;0.40;;
71475;SDS011;59286;59.274;17.974;2022-10-18T07:51:18;5.10;;;0.60;;
71475;SDS011;59286;59.274;17.974;2022-10-18T07:53:44;0.30;;;0.30;;
71475;SDS011;59286;59.274;17.974;2022-10-18T07:56:11;1.98;;;0.50;;
71475;SDS011;59286;59.274;17.974;2022-10-18T07:58:43;1.80;;;0.50;;
71475;SDS011;59286;59.274;17.974;2022-10-18T08:01:10;1.08;;;0.50;;
71475;SDS011;59286;59.274;17.974;2022-10-18T08:03:37;0.68;;;0.50;;
71475;SDS011;59286;59.274;17.974;2022-10-18T08:06:03;1.45;;;0.52;;
71475;SDS011;59286;59.274;17.974;2022-10-18T08:08:30;1.58;;;0.60;;
71475;SDS011;59286;59.274;17.974;2022-10-18T08:11:00;3.25;;;1.08;;
71475;SDS011;59286;59.274;17.974;2022-10-18T08:13:29;2.33;;;1.13;;
71475;SDS011;59286;59.274;17.974;2022-10-18T08:16:01;2.28;;;1.08;;
71475;SDS011;59286;59.274;17.974;2022-10-18T08:18:29;1.38;;;0.60;;
71475;SDS011;59286;59.274;17.974;2022-10-18T08:20:55;0.98;;;0.40;;
71475;SDS011;59286;59.274;17.974;2022-10-18T08:23:20;0.90;;;0.40;;
71475;SDS011;59286;59.274;17.974;2022-10-18T08:25:46;1.77;;;0.50;;
71475;SDS011;59286;59.274;17.974;2022-10-18T08:28:11;2.85;;;0.50;;
71475;SDS011;59286;59.274;17.974;2022-10-18T08:30:38;1.20;;;0.40;;
71475;SDS011;59286;59.274;17.974;2022-10-18T08:33:04;0.68;;;0.47;;
71475;SDS011;59286;59.274;17.974;2022-10-18T08:35:30;0.57;;;0.30;;
71475;SDS011;59286;59.274;17.974;2022-10-18T08:37:56;3.92;;;0.52;;
71475;SDS011;59286;59.274;17.974;2022-10-18T08:40:21;1.50;;;0.50;;
71475;SDS011;59286;59.274;17.974;2022-10-18T08:45:56;1.67;;;0.50;;
71475;SDS011;59286;59.274;17.974;2022-10-18T08:50:56;2.55;;;0.80;;
71475;SDS011;59286;59.274;17.974;2022-10-18T08:53:28;0.98;;;0.60;;
71475;SDS011;59286;59.274;17.974;2022-10-18T08:56:05;1.15;;;0.73;;
71475;SDS011;59286;59.274;17.974;2022-10-18T08:58:38;1.50;;;0.60;;
71475;SDS011;59286;59.274;17.974;2022-10-18T09:06:34;0.85;;;0.63;;
71475;SDS011;59286;59.274;17.974;2022-10-18T09:25:20;1.95;;;0.90;;
71475;SDS011;59286;59.274;17.974;2022-10-18T09:28:18;1.88;;;1.00;;
71475;SDS011;59286;59.274;17.974;2022-10-18T09:31:06;0.82;;;0.63;;
71475;SDS011;59286;59.274;17.974;2022-10-18T09:36:25;2.90;;;1.00;;
71475;SDS011;59286;59.274;17.974;2022-10-18T09:39:00;2.58;;;0.80;;
71475;SDS011;59286;59.274;17.974;2022-10-18T09:41:31;0.63;;;0.60;;
71475;SDS011;59286;59.274;17.974;2022-10-18T09:44:20;3.17;;;0.90;;
71475;SDS011;59286;59.274;17.974;2022-10-18T09:46:49;1.67;;;0.80;;
71475;SDS011;59286;59.274;17.974;2022-10-18T09:49:23;3.17;;;0.90;;
71475;SDS011;59286;59.274;17.974;2022-10-18T09:51:58;2.60;;;0.82;;
71475;SDS011;59286;59.274;17.974;2022-10-18T09:54:35;2.10;;;0.70;;
71475;SDS011;59286;59.274;17.974;2022-10-18T09:57:09;1.55;;;0.75;;
71475;SDS011;59286;59.274;17.974;2022-10-18T09:59:39;2.45;;;0.90;;
71475;SDS011;59286;59.274;17.974;2022-10-18T10:02:05;1.23;;;0.80;;
71475;SDS011;59286;59.274;17.974;2022-10-18T10:04:36;1.73;;;0.73;;
71475;SDS011;59286;59.274;17.974;2022-10-18T10:07:01;0.95;;;0.60;;
71475;SDS011;59286;59.274;17.974;2022-10-18T10:09:36;1.30;;;0.60;;
71475;SDS011;59286;59.274;17.974;2022-10-18T10:12:21;2.15;;;0.50;;
71475;SDS011;59286;59.274;17.974;2022-10-18T10:14:50;1.42;;;0.50;;
71475;SDS011;59286;59.274;17.974;2022-10-18T10:17:22;0.77;;;0.65;;
71475;SDS011;59286;59.274;17.974;2022-10-18T10:19:57;1.67;;;0.90;;
71475;SDS011;59286;59.274;17.974;2022-10-18T10:22:34;1.17;;;0.60;;
71475;SDS011;59286;59.274;17.974;2022-10-18T10:25:02;2.25;;;0.75;;
71475;SDS011;59286;59.274;17.974;2022-10-18T10:27:29;0.68;;;0.40;;
71475;SDS011;59286;59.274;17.974;2022-10-18T10:29:56;0.50;;;0.50;;
71475;SDS011;59286;59.274;17.974;2022-10-18T10:32:25;2.85;;;0.80;;
71475;SDS011;59286;59.274;17.974;2022-10-18T10:34:53;1.55;;;0.70;;
71475;SDS011;59286;59.274;17.974;2022-10-18T10:40:03;0.93;;;0.70;;
71475;SDS011;59286;59.274;17.974;2022-10-18T10:42:28;2.15;;;0.60;;
71475;SDS011;59286;59.274;17.974;2022-10-18T10:44:55;0.85;;;0.75;;
71475;SDS011;59286;59.274;17.974;2022-10-18T10:47:27;2.67;;;0.70;;
71475;SDS011;59286;59.274;17.974;2022-10-18T10:49:57;1.85;;;0.80;;
71475;SDS011;59286;59.274;17.974;2022-10-18T10:52:23;2.40;;;0.95;;
71475;SDS011;59286;59.274;17.974;2022-10-18T10:54:52;2.35;;;1.00;;
71475;SDS011;59286;59.274;17.974;2022-10-18T10:57:22;0.80;;;0.63;;
71475;SDS011;59286;59.274;17.974;2022-10-18T10:59:51;0.82;;;0.60;;
71475;SDS011;59286;59.274;17.974;2022-10-18T11:02:36;0.90;;;0.70;;
71475;SDS011;59286;59.274;17.974;2022-10-18T11:05:15;1.13;;;0.50;;
71475;SDS011;59286;59.274;17.974;2022-10-18T11:07:44;1.02;;;0.40;;
71475;SDS011;59286;59.274;17.974;2022-10-18T11:12:42;2.58;;;0.50;;
71475;SDS011;59286;59.274;17.974;2022-10-18T11:17:41;1.35;;;0.93;;
71475;SDS011;59286;59.274;17.974;2022-10-18T11:22:42;1.13;;;0.77;;
71475;SDS011;59286;59.274;17.974;2022-10-18T11:25:15;1.00;;;0.70;;
71475;SDS011;59286;59.274;17.974;2022-10-18T11:27:45;0.65;;;0.50;;
71475;SDS011;59286;59.274;17.974;2022-10-18T11:38:43;1.25;;;0.30;;
71475;SDS011;59286;59.274;17.974;2022-10-18T11:41:22;1.58;;;0.40;;
71475;SDS011;59286;59.274;17.974;2022-10-18T11:51:58;0.68;;;0.38;;
71475;SDS011;59286;59.274;17.974;2022-10-18T12:05:48;0.63;;;0.30;;
71475;SDS011;59286;59.274;17.974;2022-10-18T12:10:54;1.65;;;0.40;;
71475;SDS011;59286;59.274;17.974;2022-10-18T12:13:26;1.35;;;0.50;;
71475;SDS011;59286;59.274;17.974;2022-10-18T12:15:58;0.75;;;0.30;;
71475;SDS011;59286;59.274;17.974;2022-10-18T12:18:26;0.85;;;0.45;;
71475;SDS011;59286;59.274;17.974;2022-10-18T12:20:54;0.65;;;0.30;;
71475;SDS011;59286;59.274;17.974;2022-10-18T12:25:54;0.45;;;0.32;;
71475;SDS011;59286;59.274;17.974;2022-10-18T12:31:19;0.30;;;0.30;;
71475;SDS011;59286;59.274;17.974;2022-10-18T12:36:50;1.45;;;0.50;;
71475;SDS011;59286;59.274;17.974;2022-10-18T12:39:25;0.60;;;0.52;;
71475;SDS011;59286;59.274;17.974;2022-10-18T12:41:55;0.90;;;0.50;;
71475;SDS011;59286;59.274;17.974;2022-10-18T12:44:23;1.20;;;0.43;;
71475;SDS011;59286;59.274;17.974;2022-10-18T12:46:59;0.73;;;0.40;;
71475;SDS011;59286;59.274;17.974;2022-10-18T12:49:27;1.17;;;0.50;;
71475;SDS011;59286;59.274;17.974;2022-10-18T12:51:59;0.40;;;0.40;;
71475;SDS011;59286;59.274;17.974;2022-10-18T12:54:37;1.92;;;0.60;;
71475;SDS011;59286;59.274;17.974;2022-10-18T12:57:16;2.35;;;0.57;;
71475;SDS011;59286;59.274;17.974;2022-10-18T12:59:47;0.60;;;0.40;;
71475;SDS011;59286;59.274;17.974;2022-10-18T13:02:23;1.63;;;0.50;;
71475;SDS011;59286;59.274;17.974;2022-10-18T13:04:50;0.98;;;0.40;;
71475;SDS011;59286;59.274;17.974;2022-10-18T13:07:20;1.55;;;0.60;;
71475;SDS011;59286;59.274;17.974;2022-10-18T13:18:09;0.65;;;0.40;;
71475;SDS011;59286;59.274;17.974;2022-10-18T13:21:12;0.45;;;0.30;;
71475;SDS011;59286;59.274;17.974;2022-10-18T13:26:33;0.60;;;0.40;;
71475;SDS011;59286;59.274;17.974;2022-10-18T13:31:50;1.40;;;0.38;;
71475;SDS011;59286;59.274;17.974;2022-10-18T13:34:47;2.17;;;0.40;;
71475;SDS011;59286;59.274;17.974;2022-10-18T13:39:39;1.65;;;0.50;;
71475;SDS011;59286;59.274;17.974;2022-10-18T13:44:40;1.10;;;0.45;;
71475;SDS011;59286;59.274;17.974;2022-10-18T13:47:15;0.40;;;0.38;;
71475;SDS011;59286;59.274;17.974;2022-10-18T13:50:06;0.75;;;0.45;;
71475;SDS011;59286;59.274;17.974;2022-10-18T13:52:53;2.45;;;0.60;;
71475;SDS011;59286;59.274;17.974;2022-10-18T13:55:47;1.27;;;0.47;;
71475;SDS011;59286;59.274;17.974;2022-10-18T14:06:48;1.00;;;0.50;;
71475;SDS011;59286;59.274;17.974;2022-10-18T14:09:22;2.20;;;0.57;;
71475;SDS011;59286;59.274;17.974;2022-10-18T14:14:41;0.80;;;0.40;;
71475;SDS011;59286;59.274;17.974;2022-10-18T14:19:37;1.35;;;0.32;;
71475;SDS011;59286;59.274;17.974;2022-10-18T14:25:16;0.40;;;0.30;;
71475;SDS011;59286;59.274;17.974;2022-10-18T14:28:01;0.70;;;0.40;;
71475;SDS011;59286;59.274;17.974;2022-10-18T14:30:27;2.08;;;0.40;;
71475;SDS011;59286;59.274;17.974;2022-10-18T14:32:53;0.32;;;0.32;;
71475;SDS011;59286;59.274;17.974;2022-10-18T14:37:49;2.83;;;0.50;;
71475;SDS011;59286;59.274;17.974;2022-10-18T14:40:30;1.42;;;0.45;;
71475;SDS011;59286;59.274;17.974;2022-10-18T14:45:35;1.17;;;0.40;;
71475;SDS011;59286;59.274;17.974;2022-10-18T14:48:05;4.05;;;0.80;;
71475;SDS011;59286;59.274;17.974;2022-10-18T14:50:41;2.15;;;0.75;;
71475;SDS011;59286;59.274;17.974;2022-10-18T14:53:11;4.05;;;0.70;;
71475;SDS011;59286;59.274;17.974;2022-10-18T14:55:40;1.00;;;0.63;;
71475;SDS011;59286;59.274;17.974;2022-10-18T14:58:13;4.43;;;0.80;;
71475;SDS011;59286;59.274;17.974;2022-10-18T15:00:40;4.18;;;0.55;;
71475;SDS011;59286;59.274;17.974;2022-10-18T15:03:06;3.33;;;0.60;;
71475;SDS011;59286;59.274;17.974;2022-10-18T15:05:57;1.27;;;0.57;;
71475;SDS011;59286;59.274;17.974;2022-10-18T15:08:25;2.90;;;0.60;;
71475;SDS011;59286;59.274;17.974;2022-10-18T15:10:56;2.97;;;0.70;;
71475;SDS011;59286;59.274;17.974;2022-10-18T15:13:22;2.53;;;1.00;;
71475;SDS011;59286;59.274;17.974;2022-10-18T15:15:50;1.80;;;0.70;;
71475;SDS011;59286;59.274;17.974;2022-10-18T15:18:21;0.93;;;0.55;;
71475;SDS011;59286;59.274;17.974;2022-10-18T15:26:10;0.82;;;0.80;;
71475;SDS011;59286;59.274;17.974;2022-10-18T15:28:43;1.95;;;1.02;;
71475;SDS011;59286;59.274;17.974;2022-10-18T15:31:27;1.63;;;0.93;;
71475;SDS011;59286;59.274;17.974;2022-10-18T15:36:47;1.50;;;1.00;;
71475;SDS011;59286;59.274;17.974;2022-10-18T15:39:20;2.97;;;1.33;;
71475;SDS011;59286;59.274;17.974;2022-10-18T15:44:24;2.13;;;1.00;;
71475;SDS011;59286;59.274;17.974;2022-10-18T15:47:17;1.77;;;0.60;;
71475;SDS011;59286;59.274;17.974;2022-10-18T15:49:52;1.45;;;0.50;;
71475;SDS011;59286;59.274;17.974;2022-10-18T15:58:08;1.48;;;0.40;;
71475;SDS011;59286;59.274;17.974;2022-10-18T16:00:59;0.65;;;0.40;;
71475;SDS011;59286;59.274;17.974;2022-10-18T16:03:25;1.95;;;0.38;;
71475;SDS011;59286;59.274;17.974;2022-10-18T16:05:55;2.45;;;0.50;;
71475;SDS011;59286;59.274;17.974;2022-10-18T16:08:29;0.38;;;0.35;;
71475;SDS011;59286;59.274;17.974;2022-10-18T16:11:04;3.97;;;0.67;;
71475;SDS011;59286;59.274;17.974;2022-10-18T16:13:30;1.85;;;0.90;;
71475;SDS011;59286;59.274;17.974;2022-10-18T16:15:56;4.03;;;1.15;;
71475;SDS011;59286;59.274;17.974;2022-10-18T16:18:25;2.80;;;1.42;;
71475;SDS011;59286;59.274;17.974;2022-10-18T16:20:51;2.33;;;1.30;;
71475;SDS011;59286;59.274;17.974;2022-10-18T16:23:21;3.72;;;1.20;;
71475;SDS011;59286;59.274;17.974;2022-10-18T16:25:48;2.30;;;1.00;;
71475;SDS011;59286;59.274;17.974;2022-10-18T16:28:15;1.95;;;0.70;;
71475;SDS011;59286;59.274;17.974;2022-10-18T16:31:00;3.10;;;1.33;;
71475;SDS011;59286;59.274;17.974;2022-10-18T16:33:27;0.88;;;0.68;;
71475;SDS011;59286;59.274;17.974;2022-10-18T16:35:53;0.80;;;0.55;;
71475;SDS011;59286;59.274;17.974;2022-10-18T16:38:20;3.08;;;0.85;;
71475;SDS011;59286;59.274;17.974;2022-10-18T16:40:55;3.38;;;0.80;;
71475;SDS011;59286;59.274;17.974;2022-10-18T16:43:23;5.13;;;0.93;;
71475;SDS011;59286;59.274;17.974;2022-10-18T16:45:50;1.27;;;0.40;;
71475;SDS011;59286;59.274;17.974;2022-10-18T16:48:18;1.05;;;0.60;;
71475;SDS011;59286;59.274;17.974;2022-10-18T16:50:46;1.67;;;0.70;;
71475;SDS011;59286;59.274;17.974;2022-10-18T16:53:14;2.75;;;0.77;;
71475;SDS011;59286;59.274;17.974;2022-10-18T16:55:40;1.80;;;0.68;;
71475;SDS011;59286;59.274;17.974;2022-10-18T16:58:09;1.10;;;0.82;;
71475;SDS011;59286;59.274;17.974;2022-10-18T17:00:39;2.47;;;0.70;;
71475;SDS011;59286;59.274;17.974;2022-10-18T17:03:05;2.63;;;0.70;;
71475;SDS011;59286;59.274;17.974;2022-10-18T17:05:33;1.10;;;0.80;;
71475;SDS011;59286;59.274;17.974;2022-10-18T17:07:59;1.25;;;0.88;;
71475;SDS011;59286;59.274;17.974;2022-10-18T17:10:24;0.80;;;0.75;;
71475;SDS011;59286;59.274;17.974;2022-10-18T17:12:51;3.00;;;0.80;;
71475;SDS011;59286;59.274;17.974;2022-10-18T17:15:17;1.55;;;1.00;;
71475;SDS011;59286;59.274;17.974;2022-10-18T17:17:42;1.08;;;0.82;;
71475;SDS011;59286;59.274;17.974;2022-10-18T17:20:10;2.33;;;0.90;;
71475;SDS011;59286;59.274;17.974;2022-10-18T17:22:48;0.95;;;0.90;;